Time;durP1;ratioP1;P1;durP2;ratioP2;P2;SDS_P1;SDS_P2;PMS_P1;PMS_P2;Temp;Humidity;BMP_temperature;BMP_pressure;BME280_temperature;BME280_humidity;BME280_pressure;Samples;Min_cycle;Max_cycle;Signal;HPM_P1;HPM_P2
2023/01/26 00:02:03;;;;;;;8.52;7.05;;;;;;;;;;5057139;28;20369;-31
2023/01/26 00:04:29;;;;;;;18.88;7.95;;;;;;;;;;5056744;28;20053;-31
2023/01/26 00:06:56;;;;;;;8.13;7.30;;;;;;;;;;5056933;28;20040;-31
2023/01/26 00:09:22;;;;;;;11.20;7.07;;;;;;;;;;5056858;28;20052;-31
2023/01/26 00:11:48;;;;;;;14.88;7.82;;;;;;;;;;5056746;28;20036;-30
2023/01/26 00:14:14;;;;;;;13.52;8.30;;;;;;;;;;5056684;28;20065;-31
2023/01/26 00:16:40;;;;;;;11.15;6.97;;;;;;;;;;5056650;28;20086;-32
2023/01/26 00:19:07;;;;;;;10.13;7.15;;;;;;;;;;5056648;28;20017;-32
2023/01/26 00:21:33;;;;;;;11.00;7.10;;;;;;;;;;5056627;28;20121;-32
2023/01/26 00:23:59;;;;;;;9.80;7.68;;;;;;;;;;5057045;28;20036;-32
2023/01/26 00:26:27;;;;;;;11.00;7.30;;;;;;;;;;5056201;28;20036;-32
2023/01/26 00:28:54;;;;;;;9.80;6.72;;;;;;;;;;5056504;28;20122;-31
2023/01/26 00:31:21;;;;;;;11.85;7.07;;;;;;;;;;5056766;28;20032;-30
2023/01/26 00:33:48;;;;;;;13.23;7.35;;;;;;;;;;5056413;28;20037;-31
2023/01/26 00:36:14;;;;;;;9.43;7.63;;;;;;;;;;5056287;28;20028;-31
2023/01/26 00:38:40;;;;;;;7.75;6.85;;;;;;;;;;5056437;28;20087;-31
2023/01/26 00:41:07;;;;;;;10.27;8.23;;;;;;;;;;5056243;28;20364;-32
2023/01/26 00:43:33;;;;;;;12.13;6.90;;;;;;;;;;5056384;28;20115;-31
2023/01/26 00:45:59;;;;;;;11.95;6.97;;;;;;;;;;5056166;28;20051;-31
2023/01/26 00:48:26;;;;;;;9.73;7.50;;;;;;;;;;5056374;28;20032;-31
2023/01/26 00:50:52;;;;;;;6.85;6.22;;;;;;;;;;5056104;28;20040;-30
2023/01/26 00:53:18;;;;;;;8.85;6.72;;;;;;;;;;5056225;28;20104;-30
2023/01/26 00:55:44;;;;;;;10.60;6.88;;;;;;;;;;5055931;28;20025;-31
2023/01/26 00:58:11;;;;;;;9.40;6.40;;;;;;;;;;5056194;28;20029;-30
2023/01/26 01:00:38;;;;;;;9.13;8.27;;;;;;;;;;5056156;28;20060;-32
2023/01/26 01:03:05;;;;;;;8.57;7.13;;;;;;;;;;5055526;28;20080;-32
2023/01/26 01:05:32;;;;;;;10.05;6.22;;;;;;;;;;5055787;28;20039;-32
2023/01/26 01:07:58;;;;;;;9.15;7.28;;;;;;;;;;5056308;28;20139;-30
2023/01/26 01:10:27;;;;;;;12.13;6.88;;;;;;;;;;5055682;28;20467;-32
2023/01/26 01:12:55;;;;;;;8.93;6.63;;;;;;;;;;5055572;28;20048;-30
2023/01/26 01:15:21;;;;;;;11.02;7.90;;;;;;;;;;5055494;28;20078;-32
2023/01/26 01:17:47;;;;;;;12.15;7.07;;;;;;;;;;5055520;28;20033;-31
2023/01/26 01:20:13;;;;;;;6.30;5.78;;;;;;;;;;5055515;28;20029;-30
2023/01/26 01:22:39;;;;;;;12.88;6.80;;;;;;;;;;5055437;28;20032;-31
2023/01/26 01:25:05;;;;;;;8.60;6.57;;;;;;;;;;5055980;28;20428;-31
2023/01/26 01:27:32;;;;;;;7.65;6.35;;;;;;;;;;5055379;28;20100;-31
2023/01/26 01:29:58;;;;;;;9.48;7.43;;;;;;;;;;5055610;28;20029;-31
2023/01/26 01:32:24;;;;;;;8.65;6.40;;;;;;;;;;5055202;28;20036;-31
2023/01/26 01:34:50;;;;;;;7.53;6.75;;;;;;;;;;5055726;28;20099;-30
2023/01/26 01:37:17;;;;;;;8.55;7.40;;;;;;;;;;5055735;28;20448;-31
2023/01/26 01:39:43;;;;;;;7.28;6.35;;;;;;;;;;5054484;28;20044;-31
2023/01/26 01:42:09;;;;;;;10.60;6.38;;;;;;;;;;5055507;28;20086;-32
2023/01/26 01:44:36;;;;;;;7.88;6.93;;;;;;;;;;5055022;28;20056;-32
2023/01/26 01:47:04;;;;;;;7.18;6.47;;;;;;;;;;5055325;28;20368;-32
2023/01/26 01:49:31;;;;;;;8.25;7.55;;;;;;;;;;5054996;28;20104;-32
2023/01/26 01:52:17;;;;;;;7.78;6.97;;;;;;;;;;5054895;28;20103;-32
2023/01/26 01:54:55;;;;;;;8.98;7.03;;;;;;;;;;5054840;28;20075;-31
2023/01/26 01:57:30;;;;;;;7.90;6.85;;;;;;;;;;5055696;28;20021;-32
2023/01/26 02:00:07;;;;;;;7.05;6.35;;;;;;;;;;5055390;28;20017;-31
2023/01/26 02:02:34;;;;;;;8.27;7.18;;;;;;;;;;5054573;28;20380;-30
2023/01/26 02:05:04;;;;;;;7.47;6.78;;;;;;;;;;5055030;28;20353;-31
2023/01/26 02:07:32;;;;;;;7.33;6.63;;;;;;;;;;5054777;28;20446;-32
2023/01/26 02:10:17;;;;;;;9.43;6.97;;;;;;;;;;5054616;28;20127;-31
2023/01/26 02:12:43;;;;;;;11.52;6.72;;;;;;;;;;5054806;28;20139;-31
2023/01/26 02:15:10;;;;;;;7.63;6.82;;;;;;;;;;5054559;28;20475;-31
2023/01/26 02:17:36;;;;;;;10.48;7.57;;;;;;;;;;5054841;28;20112;-31
2023/01/26 02:20:03;;;;;;;7.95;7.13;;;;;;;;;;5054586;28;20086;-31
2023/01/26 02:22:32;;;;;;;7.53;6.78;;;;;;;;;;5054737;28;20047;-31
2023/01/26 02:25:04;;;;;;;8.57;7.60;;;;;;;;;;5054544;28;20071;-30
2023/01/26 02:27:30;;;;;;;9.75;7.18;;;;;;;;;;5054773;28;20029;-32
2023/01/26 02:29:58;;;;;;;10.43;6.50;;;;;;;;;;5054738;28;20055;-31
2023/01/26 02:32:24;;;;;;;6.80;6.05;;;;;;;;;;5054357;28;20043;-31
2023/01/26 02:34:55;;;;;;;6.85;6.25;;;;;;;;;;5036817;28;20518;-32
2023/01/26 02:37:21;;;;;;;7.25;6.22;;;;;;;;;;5054706;28;20019;-32
2023/01/26 02:39:51;;;;;;;9.82;6.72;;;;;;;;;;5054906;28;20029;-31
2023/01/26 02:45:02;;;;;;;6.90;6.20;;;;;;;;;;5054634;28;20035;-32
2023/01/26 02:47:28;;;;;;;6.80;6.05;;;;;;;;;;5054325;28;20038;-31
2023/01/26 02:49:57;;;;;;;6.95;6.22;;;;;;;;;;5055344;28;20021;-31
2023/01/26 02:52:27;;;;;;;8.48;6.90;;;;;;;;;;5058504;28;20051;-31
2023/01/26 02:57:39;;;;;;;9.60;6.10;;;;;;;;;;5058587;28;20044;-31
2023/01/26 03:00:07;;;;;;;6.93;6.15;;;;;;;;;;5058476;28;20021;-30
2023/01/26 03:02:33;;;;;;;6.40;5.80;;;;;;;;;;5058034;28;20135;-30
2023/01/26 03:04:59;;;;;;;8.10;6.30;;;;;;;;;;5058445;28;20032;-30
2023/01/26 03:07:25;;;;;;;8.98;6.43;;;;;;;;;;5058340;28;20340;-32
2023/01/26 03:09:52;;;;;;;8.38;6.90;;;;;;;;;;5058017;28;20021;-32
2023/01/26 03:12:18;;;;;;;6.20;5.60;;;;;;;;;;5058166;28;20037;-30
2023/01/26 03:14:44;;;;;;;6.90;5.78;;;;;;;;;;5057826;28;20029;-32
2023/01/26 03:17:10;;;;;;;8.43;5.90;;;;;;;;;;5057864;28;20459;-31
2023/01/26 03:27:50;;;;;;;6.90;6.38;;;;;;;;;;5057780;28;20446;-31
2023/01/26 03:30:17;;;;;;;10.73;6.68;;;;;;;;;;5057879;28;20367;-31
2023/01/26 03:32:44;;;;;;;6.40;5.80;;;;;;;;;;5057800;28;20406;-31
2023/01/26 03:35:14;;;;;;;6.47;5.88;;;;;;;;;;5057443;28;20035;-31
2023/01/26 03:37:42;;;;;;;6.72;6.13;;;;;;;;;;5057778;28;20032;-31
2023/01/26 03:56:37;;;;;;;6.85;6.25;;;;;;;;;;5057156;28;20467;-32
2023/01/26 03:59:08;;;;;;;6.53;5.93;;;;;;;;;;5057069;28;20367;-31
2023/01/26 04:01:36;;;;;;;6.32;5.82;;;;;;;;;;5056316;28;20119;-32
2023/01/26 04:09:33;;;;;;;6.82;6.22;;;;;;;;;;5057235;28;20079;-31
2023/01/26 04:11:59;;;;;;;8.23;6.18;;;;;;;;;;5056726;28;20036;-31
2023/01/26 04:22:46;;;;;;;6.45;5.85;;;;;;;;;;5056651;28;20036;-31
2023/01/26 04:25:14;;;;;;;7.22;6.53;;;;;;;;;;5056952;28;20368;-30
2023/01/26 04:27:41;;;;;;;6.47;5.93;;;;;;;;;;5056820;28;20100;-30
2023/01/26 04:30:08;;;;;;;5.93;5.53;;;;;;;;;;5057301;28;20038;-30
2023/01/26 04:32:34;;;;;;;5.97;5.20;;;;;;;;;;5056628;28;20040;-31
2023/01/26 04:35:00;;;;;;;10.75;6.47;;;;;;;;;;5056863;28;20051;-31
2023/01/26 04:37:26;;;;;;;6.50;5.15;;;;;;;;;;5056586;28;20159;-30
2023/01/26 04:39:52;;;;;;;5.85;5.43;;;;;;;;;;5056326;28;20100;-31
2023/01/26 04:42:19;;;;;;;8.20;5.80;;;;;;;;;;5056697;28;20483;-31
2023/01/26 04:44:45;;;;;;;6.70;5.95;;;;;;;;;;5056172;28;20075;-31
2023/01/26 04:47:11;;;;;;;6.55;5.63;;;;;;;;;;5056667;28;20025;-31
2023/01/26 04:49:37;;;;;;;6.78;6.18;;;;;;;;;;5056152;28;20029;-32
2023/01/26 04:52:03;;;;;;;6.30;5.65;;;;;;;;;;5056226;28;20090;-31
2023/01/26 04:54:29;;;;;;;6.75;6.13;;;;;;;;;;5056526;28;20039;-32
2023/01/26 04:56:55;;;;;;;5.20;4.80;;;;;;;;;;5056006;28;20037;-30
2023/01/26 04:59:22;;;;;;;6.38;5.25;;;;;;;;;;5056186;28;20037;-31
2023/01/26 05:01:48;;;;;;;6.38;5.68;;;;;;;;;;5055986;28;20035;-32
2023/01/26 05:04:14;;;;;;;9.07;5.80;;;;;;;;;;5055698;28;20418;-31
2023/01/26 05:06:41;;;;;;;5.40;4.93;;;;;;;;;;5055873;28;20025;-32
2023/01/26 05:09:07;;;;;;;8.85;5.50;;;;;;;;;;5056489;28;20111;-31
2023/01/26 05:11:33;;;;;;;7.63;5.20;;;;;;;;;;5055611;28;20375;-31
2023/01/26 05:13:59;;;;;;;7.57;6.05;;;;;;;;;;5054500;28;20029;-30
2023/01/26 05:16:25;;;;;;;7.50;6.05;;;;;;;;;;5055311;28;20029;-32
2023/01/26 05:18:53;;;;;;;6.82;6.00;;;;;;;;;;5055768;28;20356;-32
2023/01/26 05:21:19;;;;;;;9.13;6.57;;;;;;;;;;5055585;28;20040;-32
2023/01/26 05:23:45;;;;;;;5.68;5.10;;;;;;;;;;5055236;28;20021;-31
2023/01/26 05:26:11;;;;;;;5.43;4.95;;;;;;;;;;5055267;28;20079;-32
2023/01/26 05:28:37;;;;;;;5.63;5.10;;;;;;;;;;5055540;28;20022;-31
2023/01/26 05:31:03;;;;;;;7.82;6.20;;;;;;;;;;5055314;28;20040;-31
2023/01/26 05:33:30;;;;;;;8.05;6.13;;;;;;;;;;5054769;28;20033;-33
2023/01/26 05:35:57;;;;;;;7.15;6.45;;;;;;;;;;5054794;28;20418;-32
2023/01/26 05:38:23;;;;;;;8.15;5.28;;;;;;;;;;5055056;28;20033;-32
2023/01/26 05:40:49;;;;;;;10.77;5.55;;;;;;;;;;5054795;28;20029;-33
2023/01/26 05:43:15;;;;;;;6.50;5.32;;;;;;;;;;5054633;28;20399;-33
2023/01/26 05:45:42;;;;;;;6.70;5.43;;;;;;;;;;5054625;28;20029;-32
2023/01/26 05:48:08;;;;;;;6.70;6.03;;;;;;;;;;5054676;28;20029;-33
2023/01/26 05:50:34;;;;;;;6.13;5.55;;;;;;;;;;5054912;28;20033;-32
2023/01/26 05:53:01;;;;;;;9.57;5.07;;;;;;;;;;5054581;28;20025;-32
2023/01/26 05:55:28;;;;;;;7.07;6.13;;;;;;;;;;5054418;28;20025;-32
2023/01/26 05:57:54;;;;;;;7.13;5.95;;;;;;;;;;5054434;28;20044;-32
2023/01/26 06:03:21;;;;;;;8.52;6.05;;;;;;;;;;5424548;22;20045;-25
2023/01/26 06:05:52;;;;;;;7.72;5.18;;;;;;;;;;5054606;28;20079;-25
2023/01/26 06:08:18;;;;;;;10.90;5.25;;;;;;;;;;5054265;28;20111;-24
2023/01/26 06:10:44;;;;;;;8.38;5.65;;;;;;;;;;5054346;28;20025;-24
2023/01/26 06:13:11;;;;;;;5.72;5.03;;;;;;;;;;5054188;28;20033;-24
2023/01/26 06:15:38;;;;;;;6.30;5.03;;;;;;;;;;5054402;28;20033;-24
2023/01/26 06:18:04;;;;;;;6.55;5.05;;;;;;;;;;5054123;28;20032;-24
2023/01/26 06:20:30;;;;;;;6.72;6.07;;;;;;;;;;5054314;28;20049;-24
2023/01/26 06:23:00;;;;;;;5.55;4.97;;;;;;;;;;5054215;28;20025;-24
2023/01/26 06:25:26;;;;;;;7.40;5.53;;;;;;;;;;5053749;28;20121;-24
2023/01/26 06:27:56;;;;;;;11.43;6.70;;;;;;;;;;5054030;28;20052;-24
2023/01/26 06:30:22;;;;;;;16.10;7.40;;;;;;;;;;5054316;28;20044;-24
2023/01/26 06:32:49;;;;;;;10.45;7.50;;;;;;;;;;5053821;28;20158;-24
2023/01/26 06:35:15;;;;;;;10.23;5.78;;;;;;;;;;5053921;28;20025;-26
2023/01/26 06:37:41;;;;;;;10.10;6.32;;;;;;;;;;5036767;28;20036;-25
2023/01/26 06:40:08;;;;;;;14.50;5.97;;;;;;;;;;5053985;28;20025;-25
2023/01/26 06:42:34;;;;;;;10.25;6.95;;;;;;;;;;5054067;28;20020;-25
2023/01/26 06:45:00;;;;;;;12.82;6.50;;;;;;;;;;5054280;28;20029;-24
2023/01/26 06:47:26;;;;;;;7.28;5.75;;;;;;;;;;5053934;28;20025;-25
2023/01/26 06:49:53;;;;;;;16.10;7.35;;;;;;;;;;5053913;28;20029;-24
2023/01/26 06:52:26;;;;;;;12.25;6.85;;;;;;;;;;5036152;28;20471;-24
2023/01/26 06:54:53;;;;;;;8.80;6.28;;;;;;;;;;5054212;28;20071;-25
2023/01/26 06:57:19;;;;;;;15.18;5.95;;;;;;;;;;5053707;28;20025;-24
2023/01/26 06:59:45;;;;;;;16.30;5.90;;;;;;;;;;5054352;28;20343;-26
2023/01/26 07:02:29;;;;;;;9.48;5.95;;;;;;;;;;5053330;28;20125;-24
2023/01/26 07:04:55;;;;;;;14.60;6.30;;;;;;;;;;5053808;28;20039;-25
2023/01/26 07:07:21;;;;;;;22.20;6.35;;;;;;;;;;5053929;28;20029;-25
2023/01/26 07:09:48;;;;;;;12.60;5.68;;;;;;;;;;5054069;28;20072;-24
2023/01/26 07:12:14;;;;;;;11.57;6.85;;;;;;;;;;5053614;28;20293;-24
2023/01/26 07:14:40;;;;;;;11.20;6.18;;;;;;;;;;5053709;28;20021;-25
2023/01/26 07:17:06;;;;;;;10.90;5.57;;;;;;;;;;5053982;28;20104;-25
2023/01/26 07:19:32;;;;;;;6.13;5.32;;;;;;;;;;5054006;28;20083;-25
2023/01/26 07:21:59;;;;;;;15.73;6.03;;;;;;;;;;5036060;28;20094;-24
2023/01/26 07:24:25;;;;;;;9.48;6.15;;;;;;;;;;5036080;28;20033;-25
2023/01/26 07:26:51;;;;;;;10.07;4.88;;;;;;;;;;5053554;28;20028;-25
2023/01/26 07:29:18;;;;;;;11.70;6.28;;;;;;;;;;5053600;28;20130;-24
2023/01/26 07:31:44;;;;;;;18.65;6.05;;;;;;;;;;5035935;28;20025;-25
2023/01/26 07:34:10;;;;;;;8.18;6.10;;;;;;;;;;5053768;28;20025;-25
2023/01/26 07:36:36;;;;;;;9.57;7.28;;;;;;;;;;5053798;28;20106;-25
2023/01/26 07:39:03;;;;;;;17.65;5.70;;;;;;;;;;5057477;28;20025;-25
2023/01/26 07:41:29;;;;;;;9.02;4.68;;;;;;;;;;5057307;28;20052;-25
2023/01/26 07:43:55;;;;;;;11.30;5.57;;;;;;;;;;5056960;28;20032;-24
2023/01/26 07:46:22;;;;;;;9.45;4.75;;;;;;;;;;5039594;28;20033;-24
2023/01/26 07:48:48;;;;;;;10.02;5.38;;;;;;;;;;5056969;28;20103;-25
2023/01/26 07:51:14;;;;;;;10.13;5.35;;;;;;;;;;5057043;28;20033;-25
2023/01/26 07:53:42;;;;;;;8.15;4.88;;;;;;;;;;5056875;28;20068;-25
2023/01/26 07:56:13;;;;;;;17.77;5.93;;;;;;;;;;5056880;28;20150;-24
2023/01/26 07:58:39;;;;;;;21.65;6.07;;;;;;;;;;5057110;28;20103;-24
2023/01/26 08:01:10;;;;;;;15.40;5.25;;;;;;;;;;5056840;28;20044;-24
2023/01/26 08:03:36;;;;;;;11.02;5.18;;;;;;;;;;5056396;28;20045;-24
2023/01/26 08:06:02;;;;;;;17.13;6.43;;;;;;;;;;5056921;28;20025;-25
2023/01/26 08:08:28;;;;;;;14.40;5.57;;;;;;;;;;5056679;28;20467;-25
2023/01/26 08:10:59;;;;;;;8.68;4.70;;;;;;;;;;5056733;28;20068;-24
2023/01/26 08:13:26;;;;;;;9.93;5.90;;;;;;;;;;5056530;28;20028;-25
2023/01/26 08:15:52;;;;;;;13.88;6.22;;;;;;;;;;5056539;28;20025;-25
2023/01/26 08:18:19;;;;;;;11.18;4.95;;;;;;;;;;5056800;28;20104;-24
2023/01/26 08:20:55;;;;;;;17.80;6.00;;;;;;;;;;5056461;28;20025;-24
2023/01/26 08:23:21;;;;;;;13.60;5.50;;;;;;;;;;5056405;28;20422;-24
2023/01/26 08:25:48;;;;;;;10.85;6.40;;;;;;;;;;5056634;28;20052;-24
2023/01/26 08:28:14;;;;;;;14.50;6.00;;;;;;;;;;5056575;28;20059;-25
2023/01/26 08:30:40;;;;;;;9.98;4.95;;;;;;;;;;5056733;28;20099;-25
2023/01/26 08:33:06;;;;;;;9.75;5.30;;;;;;;;;;5056223;28;20029;-25
2023/01/26 08:35:33;;;;;;;12.55;5.05;;;;;;;;;;5056094;28;20055;-25
2023/01/26 08:37:59;;;;;;;12.35;5.15;;;;;;;;;;5056173;28;20039;-25
2023/01/26 08:40:25;;;;;;;6.07;4.93;;;;;;;;;;5056007;28;20033;-25
2023/01/26 08:42:53;;;;;;;11.52;6.28;;;;;;;;;;5056174;28;20032;-25
2023/01/26 08:45:19;;;;;;;9.10;5.05;;;;;;;;;;5056267;28;20444;-24
2023/01/26 08:47:48;;;;;;;8.75;4.57;;;;;;;;;;5055918;28;20294;-24
2023/01/26 08:50:14;;;;;;;15.40;5.30;;;;;;;;;;5055877;28;20033;-25
2023/01/26 08:52:41;;;;;;;11.00;6.35;;;;;;;;;;5055717;28;20032;-25
2023/01/26 08:55:07;;;;;;;14.45;5.75;;;;;;;;;;5037950;28;20332;-25
2023/01/26 08:57:33;;;;;;;8.85;5.25;;;;;;;;;;5038340;28;20029;-25
2023/01/26 08:59:59;;;;;;;11.15;5.65;;;;;;;;;;5055597;28;20082;-25
2023/01/26 09:02:25;;;;;;;9.23;5.88;;;;;;;;;;5055120;28;20085;-25
2023/01/26 09:04:52;;;;;;;9.52;5.03;;;;;;;;;;5055723;28;20036;-25
2023/01/26 09:07:18;;;;;;;11.30;5.93;;;;;;;;;;5055427;28;20155;-25
2023/01/26 09:09:44;;;;;;;11.77;5.65;;;;;;;;;;5038074;28;20071;-25
2023/01/26 09:12:10;;;;;;;21.92;8.25;;;;;;;;;;5055463;28;20389;-25
2023/01/26 09:14:36;;;;;;;12.73;4.95;;;;;;;;;;5037625;28;20028;-25
2023/01/26 09:17:02;;;;;;;11.18;6.13;;;;;;;;;;5055217;28;20115;-25
2023/01/26 09:19:29;;;;;;;11.45;5.00;;;;;;;;;;5055357;28;20021;-25
2023/01/26 09:21:55;;;;;;;13.32;5.15;;;;;;;;;;5055132;28;20347;-25
2023/01/26 09:24:22;;;;;;;17.50;6.55;;;;;;;;;;5037271;28;20440;-25
2023/01/26 09:26:48;;;;;;;7.05;4.38;;;;;;;;;;5055238;28;20043;-25
2023/01/26 09:29:15;;;;;;;9.07;4.85;;;;;;;;;;5055105;28;20424;-25
2023/01/26 09:31:41;;;;;;;7.43;4.45;;;;;;;;;;5054839;28;20098;-24
2023/01/26 09:34:07;;;;;;;10.02;4.68;;;;;;;;;;5054463;28;20025;-25
2023/01/26 09:36:33;;;;;;;17.42;5.07;;;;;;;;;;5054457;28;20147;-25
2023/01/26 09:38:59;;;;;;;12.75;4.78;;;;;;;;;;5054942;28;20021;-25
2023/01/26 09:41:28;;;;;;;12.20;5.47;;;;;;;;;;5054739;28;20032;-26
2023/01/26 09:43:56;;;;;;;17.55;6.65;;;;;;;;;;5054727;28;20033;-25
2023/01/26 09:46:22;;;;;;;13.18;5.15;;;;;;;;;;5054985;28;20481;-25
2023/01/26 09:48:54;;;;;;;5.07;4.38;;;;;;;;;;5055349;28;20035;-26
2023/01/26 09:51:24;;;;;;;7.63;4.50;;;;;;;;;;5055265;28;20035;-25
2023/01/26 09:53:54;;;;;;;7.70;4.13;;;;;;;;;;5055349;28;20036;-25
2023/01/26 09:56:21;;;;;;;4.78;4.38;;;;;;;;;;5055013;28;20029;-25
2023/01/26 09:58:55;;;;;;;9.43;5.10;;;;;;;;;;5055745;28;20090;-25
2023/01/26 10:01:43;;;;;;;16.80;4.85;;;;;;;;;;5054557;28;20028;-25
2023/01/26 10:04:18;;;;;;;20.15;5.28;;;;;;;;;;5054523;28;20040;-25
2023/01/26 10:06:44;;;;;;;8.73;4.55;;;;;;;;;;5054907;28;20439;-25
2023/01/26 10:09:21;;;;;;;16.48;4.68;;;;;;;;;;5054813;28;20032;-25
2023/01/26 10:11:49;;;;;;;11.00;4.85;;;;;;;;;;5054928;28;20044;-25
2023/01/26 10:14:29;;;;;;;8.35;5.20;;;;;;;;;;5054384;28;20044;-25
2023/01/26 10:16:56;;;;;;;13.30;5.30;;;;;;;;;;5054442;28;20032;-25
2023/01/26 10:19:34;;;;;;;11.93;4.38;;;;;;;;;;5054600;28;20017;-25
2023/01/26 10:22:03;;;;;;;13.07;4.75;;;;;;;;;;5054323;28;20103;-25
2023/01/26 10:24:30;;;;;;;11.32;5.03;;;;;;;;;;5054279;28;20076;-25
2023/01/26 10:26:56;;;;;;;16.10;5.00;;;;;;;;;;5054154;28;20025;-25
2023/01/26 10:29:23;;;;;;;9.93;5.82;;;;;;;;;;5054335;28;20025;-25
2023/01/26 10:31:49;;;;;;;9.27;4.35;;;;;;;;;;5054372;28;20424;-25
2023/01/26 10:34:17;;;;;;;13.73;5.45;;;;;;;;;;5053664;28;20025;-26
2023/01/26 10:36:46;;;;;;;11.88;4.63;;;;;;;;;;5054396;28;20096;-25
2023/01/26 10:39:14;;;;;;;6.40;4.22;;;;;;;;;;5054255;28;20064;-25
2023/01/26 10:41:40;;;;;;;7.75;3.85;;;;;;;;;;5054244;28;20036;-25
2023/01/26 10:44:10;;;;;;;11.63;4.38;;;;;;;;;;5053757;28;20029;-25
2023/01/26 10:46:39;;;;;;;9.85;5.07;;;;;;;;;;5053867;28;20047;-25
2023/01/26 10:49:08;;;;;;;25.63;6.13;;;;;;;;;;5053993;28;20041;-25
2023/01/26 10:51:36;;;;;;;23.42;5.90;;;;;;;;;;5053851;28;20064;-25
2023/01/26 10:54:18;;;;;;;18.80;5.63;;;;;;;;;;5053844;28;20408;-26
2023/01/26 10:56:53;;;;;;;19.75;6.55;;;;;;;;;;5053990;28;20028;-25
2023/01/26 10:59:28;;;;;;;18.73;5.13;;;;;;;;;;5054151;28;20064;-25
2023/01/26 11:02:14;;;;;;;13.18;6.10;;;;;;;;;;5054066;28;20429;-25
2023/01/26 11:04:41;;;;;;;6.25;4.70;;;;;;;;;;5040644;28;20088;-25
2023/01/26 11:07:26;;;;;;;11.65;4.60;;;;;;;;;;5053530;28;20055;-25
2023/01/26 11:09:53;;;;;;;15.90;5.72;;;;;;;;;;5036102;28;20025;-25
2023/01/26 11:12:20;;;;;;;18.08;5.10;;;;;;;;;;5056538;28;20043;-25
2023/01/26 11:15:05;;;;;;;17.70;5.63;;;;;;;;;;5057262;28;20029;-24
2023/01/26 11:17:41;;;;;;;14.27;5.75;;;;;;;;;;5057503;28;20052;-24
2023/01/26 11:20:26;;;;;;;14.13;5.78;;;;;;;;;;5057965;28;20033;-24
2023/01/26 11:23:11;;;;;;;14.60;4.78;;;;;;;;;;5057560;28;20040;-24
2023/01/26 11:25:54;;;;;;;11.60;5.35;;;;;;;;;;5057634;28;20478;-25
2023/01/26 11:28:20;;;;;;;11.13;4.78;;;;;;;;;;5057411;28;20039;-24
2023/01/26 11:30:49;;;;;;;11.07;4.70;;;;;;;;;;5057016;28;20479;-25
2023/01/26 11:33:39;;;;;;;13.50;4.10;;;;;;;;;;5057246;28;20033;-25
2023/01/26 11:36:24;;;;;;;16.23;6.63;;;;;;;;;;5057636;28;20068;-25
2023/01/26 11:39:17;;;;;;;20.23;5.18;;;;;;;;;;5039648;28;20371;-25
2023/01/26 11:41:58;;;;;;;14.75;4.60;;;;;;;;;;5057482;28;20036;-25
2023/01/26 11:44:36;;;;;;;18.25;7.10;;;;;;;;;;5057255;28;20040;-25
2023/01/26 11:47:09;;;;;;;10.05;4.65;;;;;;;;;;5057399;28;20037;-24
2023/01/26 11:49:41;;;;;;;14.40;4.30;;;;;;;;;;5057009;28;20044;-25
2023/01/26 11:52:13;;;;;;;13.93;5.00;;;;;;;;;;5039218;28;20033;-25
2023/01/26 11:54:58;;;;;;;15.07;4.78;;;;;;;;;;5056816;28;20048;-25
2023/01/26 11:57:29;;;;;;;15.13;5.82;;;;;;;;;;5057209;28;20041;-25
2023/01/26 11:59:55;;;;;;;;;;;;;;;;;;5057862;28;20048;-25
2023/01/26 12:02:28;;;;;;;8.23;4.13;;;;;;;;;;5056662;28;19912;-25
2023/01/26 12:04:57;;;;;;;14.00;4.53;;;;;;;;;;5057174;28;20048;-25
2023/01/26 12:07:56;;;;;;;16.38;4.68;;;;;;;;;;5056830;28;20086;-25
2023/01/26 12:10:42;;;;;;;10.68;4.35;;;;;;;;;;5056833;28;20356;-25
2023/01/26 12:13:16;;;;;;;20.90;5.35;;;;;;;;;;5056847;28;20072;-25
2023/01/26 12:15:46;;;;;;;7.88;4.05;;;;;;;;;;5056866;28;20118;-25
2023/01/26 12:18:16;;;;;;;14.87;4.93;;;;;;;;;;5056652;28;20025;-25
2023/01/26 12:20:49;;;;;;;14.95;5.45;;;;;;;;;;5056559;28;20468;-25
2023/01/26 12:23:24;;;;;;;10.95;5.05;;;;;;;;;;5056177;28;20053;-25
2023/01/26 12:26:01;;;;;;;15.77;4.90;;;;;;;;;;5056944;28;20079;-25
2023/01/26 12:28:30;;;;;;;24.80;4.25;;;;;;;;;;5056267;28;20155;-25
2023/01/26 12:31:09;;;;;;;16.00;5.40;;;;;;;;;;5056211;28;20029;-25
2023/01/26 12:33:36;;;;;;;16.13;5.07;;;;;;;;;;5056208;28;20048;-25
2023/01/26 12:36:15;;;;;;;9.02;4.68;;;;;;;;;;5056234;28;20025;-26
2023/01/26 12:39:00;;;;;;;11.10;4.80;;;;;;;;;;5056616;28;20110;-25
2023/01/26 12:41:26;;;;;;;8.95;4.68;;;;;;;;;;5056192;28;20444;-25
2023/01/26 12:44:00;;;;;;;12.88;3.92;;;;;;;;;;5056146;28;20036;-25
2023/01/26 12:46:27;;;;;;;20.15;6.38;;;;;;;;;;5038617;28;20163;-25
2023/01/26 12:48:56;;;;;;;21.83;5.13;;;;;;;;;;5056063;28;20060;-25
2023/01/26 12:51:31;;;;;;;13.32;4.88;;;;;;;;;;5056205;28;20348;-25
2023/01/26 12:54:00;;;;;;;12.50;4.60;;;;;;;;;;5055851;28;20025;-25
2023/01/26 12:56:29;;;;;;;13.80;5.45;;;;;;;;;;5056106;28;20064;-25
2023/01/26 12:58:56;;;;;;;15.23;5.13;;;;;;;;;;5055926;28;20078;-25
2023/01/26 13:01:25;;;;;;;25.25;5.15;;;;;;;;;;5055860;28;20021;-25
2023/01/26 13:03:51;;;;;;;13.80;5.57;;;;;;;;;;5055589;28;20044;-26
2023/01/26 13:06:22;;;;;;;15.63;4.43;;;;;;;;;;5055742;28;20025;-25
2023/01/26 13:08:50;;;;;;;;;;;;;;;;;;5056403;28;20048;-25
2023/01/26 13:11:36;;;;;;;10.52;4.18;;;;;;;;;;5055905;28;20298;-25
2023/01/26 13:14:02;;;;;;;10.98;5.43;;;;;;;;;;5055351;28;20098;-25
2023/01/26 13:16:28;;;;;;;6.22;3.63;;;;;;;;;;5055978;28;20112;-25
2023/01/26 13:18:58;;;;;;;10.48;4.65;;;;;;;;;;5055717;28;20467;-25
2023/01/26 13:21:40;;;;;;;9.48;4.38;;;;;;;;;;5055744;28;20193;-26
2023/01/26 13:24:16;;;;;;;19.10;4.68;;;;;;;;;;5055369;28;20329;-25
2023/01/26 13:26:58;;;;;;;20.65;4.93;;;;;;;;;;5055421;28;20109;-25
2023/01/26 13:29:24;;;;;;;23.13;5.80;;;;;;;;;;5055543;28;20041;-25
2023/01/26 13:31:51;;;;;;;12.52;5.15;;;;;;;;;;5055230;28;20029;-25
2023/01/26 13:34:19;;;;;;;13.82;5.25;;;;;;;;;;5054487;28;20055;-25
2023/01/26 13:36:47;;;;;;;11.45;4.32;;;;;;;;;;5055749;28;20124;-25
2023/01/26 13:39:34;;;;;;;16.73;4.30;;;;;;;;;;5055120;28;20029;-25
2023/01/26 13:42:00;;;;;;;15.05;4.28;;;;;;;;;;5055215;28;20063;-25
2023/01/26 13:44:33;;;;;;;13.48;4.03;;;;;;;;;;5055241;28;20082;-25
2023/01/26 13:47:01;;;;;;;10.60;3.97;;;;;;;;;;5055124;28;20032;-25
2023/01/26 13:49:27;;;;;;;8.68;3.70;;;;;;;;;;5054846;28;20056;-25
2023/01/26 13:51:54;;;;;;;10.43;4.22;;;;;;;;;;5055235;28;20037;-25
2023/01/26 13:54:21;;;;;;;14.13;4.13;;;;;;;;;;5054762;28;20067;-25
2023/01/26 13:57:03;;;;;;;12.68;4.03;;;;;;;;;;5054901;28;20450;-25
2023/01/26 13:59:31;;;;;;;9.98;3.65;;;;;;;;;;5054537;28;20151;-25
2023/01/26 14:01:57;;;;;;;10.25;3.88;;;;;;;;;;5054746;28;20079;-25
2023/01/26 14:04:25;;;;;;;12.45;5.30;;;;;;;;;;5054336;28;20376;-25
2023/01/26 14:07:06;;;;;;;9.50;3.67;;;;;;;;;;5054450;28;20025;-25
2023/01/26 14:09:33;;;;;;;15.77;3.83;;;;;;;;;;5054375;28;20041;-25
2023/01/26 14:12:00;;;;;;;9.25;3.83;;;;;;;;;;5054490;28;20024;-25
2023/01/26 14:14:29;;;;;;;7.07;4.72;;;;;;;;;;5054384;28;20029;-25
2023/01/26 14:16:57;;;;;;;10.50;3.45;;;;;;;;;;5054354;28;20032;-25
2023/01/26 14:19:23;;;;;;;9.93;3.95;;;;;;;;;;5054661;28;20036;-25
2023/01/26 14:21:49;;;;;;;8.77;3.58;;;;;;;;;;5054351;28;20052;-25
2023/01/26 14:24:16;;;;;;;7.70;4.47;;;;;;;;;;5054552;28;20037;-25
2023/01/26 14:26:42;;;;;;;12.50;4.93;;;;;;;;;;5054639;28;20040;-25
2023/01/26 14:29:17;;;;;;;11.20;4.93;;;;;;;;;;5054593;28;20355;-25
2023/01/26 14:31:46;;;;;;;6.60;4.10;;;;;;;;;;5054763;28;20082;-25
2023/01/26 14:34:18;;;;;;;13.13;3.40;;;;;;;;;;5054552;28;20112;-25
2023/01/26 14:36:44;;;;;;;7.38;3.58;;;;;;;;;;5054193;28;20061;-25
2023/01/26 14:39:20;;;;;;;9.38;4.15;;;;;;;;;;5054217;28;20097;-25
2023/01/26 14:41:47;;;;;;;9.75;4.30;;;;;;;;;;5054322;28;20048;-25
2023/01/26 14:44:13;;;;;;;12.32;4.78;;;;;;;;;;5054084;28;20036;-25
2023/01/26 14:46:58;;;;;;;9.38;3.60;;;;;;;;;;5056426;28;20104;-25
2023/01/26 14:49:29;;;;;;;7.82;3.70;;;;;;;;;;5058572;28;20051;-25
2023/01/26 14:51:57;;;;;;;13.95;4.07;;;;;;;;;;5058376;28;20101;-25
2023/01/26 14:54:31;;;;;;;19.73;4.45;;;;;;;;;;5058361;28;20326;-24
2023/01/26 14:56:58;;;;;;;18.17;4.65;;;;;;;;;;5057876;28;20025;-25
2023/01/26 14:59:33;;;;;;;25.83;4.75;;;;;;;;;;5057936;28;20020;-25
2023/01/26 15:02:18;;;;;;;33.00;5.20;;;;;;;;;;5058291;28;20027;-25
2023/01/26 15:05:07;;;;;;;16.35;4.93;;;;;;;;;;5058228;28;20088;-25
2023/01/26 15:07:48;;;;;;;16.50;5.10;;;;;;;;;;5047540;28;20452;-25
2023/01/26 15:10:25;;;;;;;18.42;4.65;;;;;;;;;;5058010;28;20603;-25
2023/01/26 15:12:59;;;;;;;23.42;5.50;;;;;;;;;;5058262;28;20045;-25
2023/01/26 15:15:29;;;;;;;15.85;7.32;;;;;;;;;;5057602;28;20044;-25
2023/01/26 15:18:04;;;;;;;13.73;4.82;;;;;;;;;;5057566;28;20025;-25
2023/01/26 15:20:32;;;;;;;11.80;4.50;;;;;;;;;;5057895;28;20344;-25
2023/01/26 15:22:58;;;;;;;18.83;3.97;;;;;;;;;;5057467;28;20312;-25
2023/01/26 15:25:28;;;;;;;18.75;5.03;;;;;;;;;;5057547;28;20025;-25
2023/01/26 15:27:58;;;;;;;13.75;4.05;;;;;;;;;;5057340;28;20043;-25
2023/01/26 15:30:26;;;;;;;8.10;3.90;;;;;;;;;;5057254;28;20053;-25
2023/01/26 15:32:53;;;;;;;5.47;3.60;;;;;;;;;;5057565;28;20336;-25
2023/01/26 15:35:33;;;;;;;13.38;4.45;;;;;;;;;;5057322;28;20028;-25